Time;durP1;ratioP1;P1;durP2;ratioP2;P2;SDS_P1;SDS_P2;PMS_P1;PMS_P2;Temp;Humidity;BMP_temperature;BMP_pressure;BME280_temperature;BME280_humidity;BME280_pressure;Samples;Min_cycle;Max_cycle;Signal;HPM_P1;HPM_P2
2023/12/22 00:01:31;;;;;;;5.18;0.95;;;8.60;81.00;;;;;;5055324;28;20033;-69
2023/12/22 00:03:56;;;;;;;1.55;0.70;;;8.70;80.90;;;;;;5057708;28;20024;-69
2023/12/22 00:06:22;;;;;;;7.82;1.52;;;8.70;80.80;;;;;;5052074;28;20055;-64
2023/12/22 00:08:48;;;;;;;3.92;1.77;;;8.70;80.60;;;;;;5049587;28;20045;-64
2023/12/22 00:11:14;;;;;;;5.90;1.15;;;8.70;80.60;;;;;;5034455;28;20039;-64
2023/12/22 00:13:39;;;;;;;4.85;1.60;;;8.80;80.60;;;;;;5046005;28;20030;-64
2023/12/22 00:16:05;;;;;;;7.13;1.45;;;8.80;80.50;;;;;;5046286;28;20087;-64
2023/12/22 00:18:31;;;;;;;2.08;0.80;;;8.80;80.30;;;;;;5046194;28;20053;-69
2023/12/22 00:20:57;;;;;;;3.15;1.40;;;8.80;80.30;;;;;;5045695;28;20037;-69
2023/12/22 00:23:22;;;;;;;2.50;1.33;;;8.80;80.50;;;;;;5046520;28;20031;-69
2023/12/22 00:25:48;;;;;;;2.25;0.93;;;8.80;80.40;;;;;;5048617;28;20036;-69
2023/12/22 00:28:14;;;;;;;3.05;0.63;;;8.80;80.50;;;;;;5046556;28;20472;-69
2023/12/22 00:30:40;;;;;;;8.77;1.98;;;8.80;80.70;;;;;;5043529;28;20056;-69
2023/12/22 00:33:05;;;;;;;4.13;1.08;;;8.80;80.70;;;;;;5043801;28;20120;-64
2023/12/22 00:35:31;;;;;;;3.22;1.35;;;8.80;80.80;;;;;;5051247;28;20029;-69
2023/12/22 00:37:57;;;;;;;1.40;0.95;;;8.80;81.00;;;;;;5052919;28;20028;-69
2023/12/22 00:40:22;;;;;;;2.45;1.45;;;8.80;81.20;;;;;;5050249;28;20025;-70
2023/12/22 00:42:48;;;;;;;2.55;1.75;;;8.70;81.70;;;;;;5052186;28;20086;-70
2023/12/22 00:45:14;;;;;;;2.58;1.33;;;8.70;82.80;;;;;;5051094;28;20405;-63
2023/12/22 00:47:40;;;;;;;4.15;1.00;;;8.60;82.50;;;;;;5050157;28;20108;-63
2023/12/22 00:50:06;;;;;;;1.65;0.80;;;8.50;82.60;;;;;;5051723;28;20045;-63
2023/12/22 00:52:32;;;;;;;3.75;1.10;;;8.50;82.60;;;;;;5051619;28;20305;-63
2023/12/22 00:54:57;;;;;;;3.28;0.65;;;8.50;82.60;;;;;;5050211;28;20075;-63
2023/12/22 00:57:23;;;;;;;0.93;0.47;;;8.40;82.40;;;;;;5048556;28;20365;-63
2023/12/22 00:59:49;;;;;;;1.77;0.65;;;8.40;82.50;;;;;;5059504;28;20376;-64
2023/12/22 01:02:18;;;;;;;19.10;1.25;;;8.40;82.30;;;;;;5053665;28;20040;-64
2023/12/22 01:04:44;;;;;;;1.65;0.40;;;8.40;82.20;;;;;;5051238;28;20550;-63
2023/12/22 01:07:11;;;;;;;1.80;0.95;;;8.30;82.00;;;;;;5052579;28;20030;-63
2023/12/22 01:09:37;;;;;;;1.38;0.60;;;8.30;82.20;;;;;;5050293;28;20119;-64
2023/12/22 01:12:07;;;;;;;0.93;0.52;;;8.20;82.50;;;;;;5050812;28;20036;-64
2023/12/22 01:14:33;;;;;;;1.73;0.30;;;8.20;82.70;;;;;;5057041;28;20039;-63
2023/12/22 01:17:00;;;;;;;2.45;0.77;;;8.20;82.80;;;;;;5051874;28;20021;-69
2023/12/22 01:19:27;;;;;;;2.08;0.60;;;8.20;83.00;;;;;;5049589;28;20048;-69
2023/12/22 01:21:52;;;;;;;2.15;0.70;;;8.10;82.90;;;;;;5052850;28;20044;-69
2023/12/22 01:24:18;;;;;;;10.85;0.80;;;8.20;82.80;;;;;;5051392;28;20037;-63
2023/12/22 01:26:44;;;;;;;1.15;0.57;;;8.10;82.60;;;;;;5054706;28;20507;-63
2023/12/22 01:29:10;;;;;;;1.45;0.95;;;8.10;82.40;;;;;;5049671;28;20052;-63
2023/12/22 01:31:35;;;;;;;2.00;0.73;;;8.10;82.40;;;;;;5055817;28;20032;-63
2023/12/22 01:34:01;;;;;;;0.63;0.30;;;8.10;82.40;;;;;;5056729;28;20028;-64
2023/12/22 01:36:27;;;;;;;1.48;0.30;;;8.10;82.30;;;;;;5047230;28;20036;-63
2023/12/22 01:38:52;;;;;;;2.85;0.77;;;8.10;82.30;;;;;;5053427;28;20052;-64
2023/12/22 01:41:18;;;;;;;0.77;0.50;;;8.20;82.30;;;;;;5049509;28;20043;-64
2023/12/22 01:43:44;;;;;;;3.25;1.17;;;8.20;82.00;;;;;;5053050;28;20055;-63
2023/12/22 01:46:11;;;;;;;2.78;0.73;;;8.20;82.10;;;;;;5059200;28;20818;-63
2023/12/22 01:48:37;;;;;;;1.25;1.05;;;8.20;82.00;;;;;;5044850;28;20147;-64
2023/12/22 01:51:04;;;;;;;0.85;0.40;;;8.20;82.00;;;;;;5055901;28;20032;-64
2023/12/22 01:53:31;;;;;;;1.67;0.82;;;8.20;82.10;;;;;;5049687;28;20561;-70
2023/12/22 01:55:59;;;;;;;2.58;0.50;;;8.20;82.00;;;;;;5048831;28;20025;-70
2023/12/22 01:58:27;;;;;;;0.57;0.32;;;8.20;81.90;;;;;;5045003;28;20115;-71
2023/12/22 02:00:56;;;;;;;0.82;0.63;;;8.20;82.00;;;;;;5057052;28;20040;-70
2023/12/22 02:03:22;;;;;;;1.45;0.85;;;8.20;82.00;;;;;;5048269;28;20111;-70
2023/12/22 02:05:48;;;;;;;5.75;0.45;;;8.20;81.90;;;;;;5046081;28;20033;-64
2023/12/22 02:08:17;;;;;;;4.55;0.80;;;8.20;82.10;;;;;;5057618;28;20047;-64
2023/12/22 02:10:44;;;;;;;1.92;0.98;;;8.20;82.00;;;;;;5056311;28;20028;-64
2023/12/22 02:13:11;;;;;;;2.58;0.60;;;8.20;82.10;;;;;;5056215;28;20021;-64
2023/12/22 02:15:37;;;;;;;0.90;0.50;;;8.20;82.10;;;;;;5053420;28;20040;-70
2023/12/22 02:18:09;;;;;;;2.88;1.42;;;8.30;82.20;;;;;;5051281;28;20053;-64
2023/12/22 02:20:35;;;;;;;2.33;1.33;;;8.20;82.10;;;;;;5044948;28;20504;-64
2023/12/22 02:23:01;;;;;;;6.22;1.42;;;8.20;82.30;;;;;;5047401;28;20029;-64
2023/12/22 02:25:26;;;;;;;2.22;0.50;;;8.20;82.50;;;;;;5047727;28;20030;-64
2023/12/22 02:28:03;;;;;;;1.65;1.05;;;8.20;82.50;;;;;;5053411;28;20110;-64
2023/12/22 02:30:48;;;;;;;1.30;0.63;;;8.20;82.50;;;;;;5052501;28;20091;-64
2023/12/22 02:33:16;;;;;;;1.85;0.77;;;8.20;82.60;;;;;;5043562;28;20025;-64
2023/12/22 02:35:44;;;;;;;2.63;0.93;;;8.20;82.60;;;;;;5041634;28;20021;-64
2023/12/22 02:38:12;;;;;;;2.15;0.80;;;8.20;82.50;;;;;;5052619;28;20021;-64
2023/12/22 02:40:39;;;;;;;3.78;0.93;;;8.20;82.50;;;;;;5047586;28;20025;-64
2023/12/22 02:43:06;;;;;;;2.00;1.02;;;8.20;82.60;;;;;;5049375;28;20044;-70
2023/12/22 02:45:32;;;;;;;1.92;1.25;;;8.30;82.60;;;;;;5043803;28;20062;-70
2023/12/22 02:47:58;;;;;;;13.20;1.77;;;8.30;82.70;;;;;;5055859;28;20025;-70
2023/12/22 02:50:24;;;;;;;3.65;0.75;;;8.30;82.70;;;;;;5029602;28;20037;-70
2023/12/22 02:52:49;;;;;;;1.33;0.90;;;8.40;82.70;;;;;;5053120;28;20032;-70
2023/12/22 02:55:15;;;;;;;4.90;1.02;;;8.40;82.70;;;;;;5055037;28;20032;-70
2023/12/22 02:57:41;;;;;;;2.72;1.38;;;8.30;83.00;;;;;;5048777;28;20420;-70
2023/12/22 03:00:07;;;;;;;2.63;1.27;;;8.30;83.20;;;;;;5053316;28;20036;-70
2023/12/22 03:02:33;;;;;;;2.13;0.70;;;8.40;83.30;;;;;;5054851;28;20115;-70
2023/12/22 03:04:58;;;;;;;4.45;1.17;;;8.40;83.30;;;;;;5046692;28;20104;-70
2023/12/22 03:07:24;;;;;;;2.33;1.33;;;8.40;83.40;;;;;;5053363;28;20033;-70
2023/12/22 03:09:50;;;;;;;5.85;1.40;;;8.30;83.60;;;;;;5055597;28;20033;-70
2023/12/22 03:12:15;;;;;;;11.07;1.83;;;8.30;83.80;;;;;;5054767;28;20100;-70
2023/12/22 03:14:41;;;;;;;2.85;1.70;;;8.30;83.90;;;;;;5052293;28;20498;-70
2023/12/22 03:17:07;;;;;;;1.70;1.10;;;8.30;83.90;;;;;;5055839;28;20048;-70
2023/12/22 03:19:33;;;;;;;5.47;1.55;;;8.40;83.90;;;;;;5059736;28;20141;-70
2023/12/22 03:22:00;;;;;;;1.60;1.05;;;8.40;83.90;;;;;;5063354;28;20032;-69
2023/12/22 03:24:28;;;;;;;3.22;0.90;;;8.50;83.80;;;;;;5060009;28;20037;-69
2023/12/22 03:26:54;;;;;;;2.35;0.35;;;8.30;83.00;;;;;;5058400;28;20490;-69
2023/12/22 03:29:20;;;;;;;1.02;0.40;;;8.10;82.90;;;;;;5058166;28;20056;-69
2023/12/22 03:31:46;;;;;;;2.92;0.45;;;7.90;82.60;;;;;;5052377;28;20507;-69
2023/12/22 03:34:12;;;;;;;0.70;0.45;;;7.60;82.80;;;;;;5056112;28;20028;-69
2023/12/22 03:36:38;;;;;;;1.98;0.40;;;7.50;83.10;;;;;;5052255;28;20039;-69
2023/12/22 03:39:03;;;;;;;3.50;0.40;;;7.40;83.30;;;;;;5054869;28;20472;-69
2023/12/22 03:41:30;;;;;;;1.40;0.30;;;7.40;83.60;;;;;;5052297;28;20550;-69
2023/12/22 03:43:56;;;;;;;0.55;0.55;;;7.40;83.50;;;;;;5061146;28;20403;-70
2023/12/22 03:46:23;;;;;;;7.60;1.02;;;7.40;83.60;;;;;;5060352;28;20458;-69
2023/12/22 03:48:49;;;;;;;1.45;0.47;;;7.40;83.70;;;;;;5056087;28;20377;-69
2023/12/22 03:51:14;;;;;;;0.95;0.55;;;7.40;83.90;;;;;;5055785;28;20384;-69
2023/12/22 03:53:41;;;;;;;0.22;0.22;;;7.30;84.00;;;;;;5054382;28;20035;-64
2023/12/22 03:56:10;;;;;;;0.68;0.32;;;7.30;84.20;;;;;;5050674;28;20132;-63
2023/12/22 03:58:36;;;;;;;1.70;0.90;;;7.30;84.50;;;;;;5055291;28;20021;-63
2023/12/22 04:01:02;;;;;;;1.73;1.05;;;7.30;84.80;;;;;;5055552;28;20094;-63
2023/12/22 04:03:27;;;;;;;0.55;0.40;;;7.30;85.00;;;;;;5050584;28;20025;-64
2023/12/22 04:05:53;;;;;;;1.13;0.63;;;7.30;85.20;;;;;;5050818;28;20037;-64
2023/12/22 04:08:20;;;;;;;0.77;0.68;;;7.30;85.50;;;;;;5057375;28;20052;-69
2023/12/22 04:10:47;;;;;;;4.22;1.10;;;7.30;85.60;;;;;;5057318;28;20108;-70
2023/12/22 04:13:12;;;;;;;2.08;0.70;;;7.30;85.70;;;;;;5050306;28;20500;-69
2023/12/22 04:15:38;;;;;;;1.00;0.57;;;7.30;85.70;;;;;;5051588;28;20033;-69
2023/12/22 04:18:04;;;;;;;0.90;0.63;;;7.30;85.80;;;;;;5059584;28;20028;-69
2023/12/22 04:20:30;;;;;;;1.25;0.50;;;7.30;85.80;;;;;;5053084;28;20052;-64
2023/12/22 04:22:56;;;;;;;3.67;0.60;;;7.30;85.80;;;;;;5056889;28;20033;-63
2023/12/22 04:25:23;;;;;;;1.48;0.43;;;7.40;85.70;;;;;;5053673;28;20075;-69
2023/12/22 04:27:49;;;;;;;1.48;0.80;;;7.50;85.60;;;;;;5054567;28;20487;-69
2023/12/22 04:30:15;;;;;;;0.57;0.20;;;7.50;85.60;;;;;;5054401;28;20353;-69
2023/12/22 04:32:41;;;;;;;0.30;0.30;;;7.50;85.50;;;;;;5053653;28;20020;-69
2023/12/22 04:35:07;;;;;;;2.33;0.75;;;7.60;85.60;;;;;;5049305;28;20433;-69
2023/12/22 04:37:33;;;;;;;1.50;0.75;;;7.60;85.60;;;;;;5046940;28;20044;-69
2023/12/22 04:39:58;;;;;;;4.03;0.90;;;7.60;85.40;;;;;;5054314;28;20388;-69
2023/12/22 04:42:25;;;;;;;1.63;0.70;;;7.70;85.50;;;;;;5052266;28;20138;-70
2023/12/22 04:44:51;;;;;;;3.15;1.13;;;7.70;85.40;;;;;;5057593;28;20032;-69
2023/12/22 04:47:17;;;;;;;2.90;1.00;;;7.80;85.30;;;;;;5048126;28;20372;-69
2023/12/22 04:49:43;;;;;;;7.70;1.00;;;7.80;85.20;;;;;;5053108;28;20032;-70
2023/12/22 04:52:09;;;;;;;5.60;1.10;;;7.90;85.10;;;;;;5060027;28;20501;-69
2023/12/22 04:54:35;;;;;;;1.20;0.93;;;7.90;85.10;;;;;;5049336;28;20025;-70
2023/12/22 04:57:00;;;;;;;2.78;1.00;;;7.90;85.00;;;;;;5052795;28;20094;-69
2023/12/22 04:59:26;;;;;;;6.47;1.13;;;8.00;85.10;;;;;;5054589;28;20546;-69
2023/12/22 05:01:52;;;;;;;10.73;1.60;;;8.00;85.10;;;;;;5049299;28;20041;-69
2023/12/22 05:04:17;;;;;;;4.38;1.42;;;8.00;85.20;;;;;;5055092;28;20332;-69
2023/12/22 05:06:45;;;;;;;8.13;2.15;;;8.00;85.40;;;;;;5054914;28;20032;-70
2023/12/22 05:09:11;;;;;;;7.50;1.67;;;8.10;85.50;;;;;;5051808;28;20538;-69
2023/12/22 05:11:37;;;;;;;2.30;1.00;;;8.10;85.70;;;;;;5050623;28;20036;-70
2023/12/22 05:14:02;;;;;;;4.68;1.17;;;8.10;85.70;;;;;;5049317;28;20029;-64
2023/12/22 05:16:30;;;;;;;8.00;1.35;;;8.10;85.70;;;;;;5053847;28;20037;-64
2023/12/22 05:18:59;;;;;;;3.65;1.58;;;8.20;85.60;;;;;;5052384;28;20043;-69
2023/12/22 05:21:24;;;;;;;4.50;1.88;;;8.20;85.60;;;;;;5049432;28;20029;-69
2023/12/22 05:23:50;;;;;;;2.60;1.50;;;8.30;85.60;;;;;;5050333;28;20036;-70
2023/12/22 05:26:18;;;;;;;4.38;0.93;;;8.20;85.50;;;;;;5055083;28;20028;-69
2023/12/22 05:28:44;;;;;;;6.07;1.00;;;8.20;85.50;;;;;;5054729;28;20033;-70
2023/12/22 05:31:10;;;;;;;3.85;1.00;;;8.20;85.50;;;;;;5054740;28;20560;-70
2023/12/22 05:33:35;;;;;;;2.95;1.27;;;8.20;85.50;;;;;;5051142;28;20090;-70
2023/12/22 05:36:01;;;;;;;6.22;2.05;;;8.30;85.50;;;;;;5050786;28;20032;-69
2023/12/22 05:38:26;;;;;;;2.05;1.20;;;8.20;85.40;;;;;;5052471;28;20165;-70
2023/12/22 05:40:52;;;;;;;1.23;0.65;;;8.20;85.40;;;;;;5055660;28;20365;-69
2023/12/22 05:43:18;;;;;;;1.17;0.90;;;8.30;85.40;;;;;;5044449;28;20086;-70
2023/12/22 05:45:44;;;;;;;1.20;1.05;;;8.30;85.40;;;;;;5050885;28;20041;-65
2023/12/22 05:48:09;;;;;;;2.97;1.17;;;8.30;85.30;;;;;;5047913;28;20040;-64
2023/12/22 05:50:35;;;;;;;1.75;1.52;;;8.30;85.20;;;;;;5050674;28;20480;-64
2023/12/22 05:53:01;;;;;;;5.55;1.20;;;8.30;85.10;;;;;;5052967;28;20028;-70
2023/12/22 05:55:27;;;;;;;3.28;1.40;;;8.40;85.10;;;;;;5052691;28;20055;-70
2023/12/22 05:57:53;;;;;;;2.83;0.93;;;8.40;85.00;;;;;;5049383;28;20333;-70
2023/12/22 06:00:19;;;;;;;3.50;1.45;;;8.30;85.00;;;;;;5056427;28;20040;-70
2023/12/22 06:02:45;;;;;;;7.07;2.25;;;8.40;85.00;;;;;;5044123;28;20025;-70
2023/12/22 06:05:11;;;;;;;1.20;0.80;;;8.30;85.00;;;;;;5041997;28;20047;-69
2023/12/22 06:07:36;;;;;;;1.77;0.70;;;8.30;85.10;;;;;;5054714;28;20152;-70
2023/12/22 06:10:02;;;;;;;5.05;0.93;;;8.30;85.10;;;;;;5054719;28;20083;-70
2023/12/22 06:12:28;;;;;;;7.15;1.90;;;8.30;85.10;;;;;;5051175;28;20032;-70
2023/12/22 06:14:53;;;;;;;4.15;1.65;;;8.40;85.10;;;;;;5050279;28;20052;-70
2023/12/22 06:17:19;;;;;;;5.82;1.75;;;8.40;85.00;;;;;;5053448;28;20033;-70
2023/12/22 06:19:45;;;;;;;2.30;1.42;;;8.40;85.00;;;;;;5053526;28;20056;-70
2023/12/22 06:22:10;;;;;;;5.85;1.65;;;8.40;85.10;;;;;;5051644;28;20504;-70
2023/12/22 06:24:36;;;;;;;4.50;1.10;;;8.40;85.00;;;;;;5035065;28;20511;-70
2023/12/22 06:27:02;;;;;;;6.47;1.80;;;8.50;85.00;;;;;;5052646;28;20108;-70
2023/12/22 06:29:27;;;;;;;1.88;1.02;;;8.50;85.00;;;;;;5050955;28;20182;-70
2023/12/22 06:31:53;;;;;;;4.72;1.70;;;8.50;84.80;;;;;;5052998;28;20029;-70
2023/12/22 06:34:19;;;;;;;3.35;1.88;;;8.50;84.70;;;;;;5055775;28;20040;-70
2023/12/22 06:36:44;;;;;;;6.13;0.95;;;8.60;84.70;;;;;;5054132;28;20097;-70
2023/12/22 06:39:10;;;;;;;7.30;1.85;;;8.60;84.60;;;;;;5051805;28;20443;-70
2023/12/22 06:41:36;;;;;;;2.92;0.63;;;8.70;84.70;;;;;;5047139;28;20036;-70
2023/12/22 06:44:02;;;;;;;3.58;1.25;;;8.70;84.70;;;;;;5052181;28;20024;-70
2023/12/22 06:46:31;;;;;;;2.05;1.17;;;8.80;84.70;;;;;;5054276;28;20090;-70
2023/12/22 06:48:57;;;;;;;7.90;1.13;;;8.80;84.60;;;;;;5047760;28;20032;-70
2023/12/22 06:51:26;;;;;;;4.80;1.30;;;8.90;84.60;;;;;;5047766;28;20096;-70
2023/12/22 06:53:52;;;;;;;3.28;1.73;;;8.90;84.60;;;;;;5053285;28;20036;-70
2023/12/22 06:56:28;;;;;;;6.07;1.98;;;9.00;84.70;;;;;;5054719;28;20036;-70
2023/12/22 06:58:56;;;;;;;3.50;1.50;;;9.00;84.60;;;;;;5053416;28;20025;-70
2023/12/22 07:01:32;;;;;;;2.63;1.27;;;9.10;84.50;;;;;;5052537;28;20112;-70
2023/12/22 07:04:00;;;;;;;3.92;1.48;;;9.10;84.50;;;;;;5052692;28;20490;-63
2023/12/22 07:06:30;;;;;;;3.42;1.70;;;9.20;84.50;;;;;;5054119;28;20028;-64
2023/12/22 07:09:19;;;;;;;5.85;2.00;;;9.20;84.40;;;;;;5048584;28;20037;-70
2023/12/22 07:11:48;;;;;;;5.13;1.50;;;9.30;84.30;;;;;;5046580;28;20086;-70
2023/12/22 07:14:15;;;;;;;8.20;1.48;;;9.30;84.30;;;;;;5047945;28;20013;-70
2023/12/22 07:16:41;;;;;;;10.57;1.98;;;9.40;84.30;;;;;;5051256;28;20529;-70
2023/12/22 07:19:07;;;;;;;3.92;1.15;;;9.40;84.30;;;;;;5049408;28;20484;-70
2023/12/22 07:21:33;;;;;;;4.43;1.88;;;9.40;84.20;;;;;;5048710;28;20024;-70
2023/12/22 07:23:59;;;;;;;4.32;1.00;;;9.40;84.20;;;;;;5049681;28;20313;-70
2023/12/22 07:26:26;;;;;;;7.57;1.48;;;9.50;84.20;;;;;;5052163;28;20503;-70
2023/12/22 07:28:55;;;;;;;3.15;1.13;;;9.50;84.10;;;;;;5031915;28;20032;-70
2023/12/22 07:31:21;;;;;;;3.20;1.27;;;9.50;83.90;;;;;;5043996;28;20393;-70
2023/12/22 07:33:46;;;;;;;18.30;2.20;;;9.50;84.00;;;;;;5052452;28;20105;-70
2023/12/22 07:36:12;;;;;;;9.93;1.63;;;9.50;84.00;;;;;;5047093;28;20048;-70
2023/12/22 07:38:41;;;;;;;2.20;1.17;;;9.50;84.10;;;;;;5046277;28;20025;-70
2023/12/22 07:41:07;;;;;;;6.50;1.70;;;9.50;84.00;;;;;;5046894;28;20021;-70
2023/12/22 07:43:33;;;;;;;5.60;2.20;;;9.60;84.00;;;;;;5055385;28;20442;-64
2023/12/22 07:45:58;;;;;;;8.05;1.85;;;9.60;84.50;;;;;;5052878;28;20052;-64
2023/12/22 07:48:24;;;;;;;4.05;1.65;;;9.70;84.00;;;;;;5045570;28;20052;-64
2023/12/22 07:50:50;;;;;;;4.07;1.92;;;9.70;84.00;;;;;;5042079;28;20021;-64
2023/12/22 07:53:16;;;;;;;7.15;2.00;;;9.70;84.00;;;;;;5051885;28;20024;-64
2023/12/22 07:55:43;;;;;;;4.28;2.38;;;9.70;83.90;;;;;;5043910;28;20061;-64
2023/12/22 07:58:08;;;;;;;4.00;1.92;;;9.70;83.80;;;;;;5044594;28;20036;-64
2023/12/22 08:00:34;;;;;;;5.15;1.58;;;9.80;83.70;;;;;;5043237;28;20029;-64
2023/12/22 08:03:00;;;;;;;9.18;2.88;;;9.80;83.60;;;;;;5050130;28;20025;-64
2023/12/22 08:05:26;;;;;;;4.68;1.42;;;9.80;83.50;;;;;;5046695;28;20115;-64
2023/12/22 08:07:52;;;;;;;7.93;2.88;;;9.90;83.60;;;;;;5054902;28;20083;-64
2023/12/22 08:10:18;;;;;;;3.97;1.67;;;9.90;83.40;;;;;;5056989;28;20412;-64
2023/12/22 08:12:43;;;;;;;4.88;2.40;;;9.90;83.30;;;;;;5050549;28;20029;-64
2023/12/22 08:15:12;;;;;;;7.53;2.17;;;9.90;83.20;;;;;;5055452;28;20108;-70
2023/12/22 08:17:47;;;;;;;11.60;2.10;;;10.00;83.20;;;;;;5049415;28;20032;-70
2023/12/22 08:20:19;;;;;;;13.77;2.30;;;10.00;83.10;;;;;;5054073;28;20506;-70
2023/12/22 08:22:49;;;;;;;6.47;2.47;;;10.00;83.20;;;;;;5044688;28;20045;-70
2023/12/22 08:25:15;;;;;;;3.95;1.38;;;9.90;83.20;;;;;;5044827;28;20079;-70
2023/12/22 08:27:44;;;;;;;2.78;1.38;;;9.80;83.40;;;;;;5053775;28;20028;-69
2023/12/22 08:30:10;;;;;;;1.80;0.80;;;9.70;84.00;;;;;;5053774;28;20453;-69
2023/12/22 08:32:36;;;;;;;5.15;1.15;;;9.60;84.30;;;;;;5051441;28;20113;-69
2023/12/22 08:35:03;;;;;;;3.30;1.08;;;9.60;84.60;;;;;;5040309;28;20215;-69
2023/12/22 08:37:28;;;;;;;4.03;1.00;;;9.50;84.70;;;;;;5054522;28;20033;-67
2023/12/22 08:39:54;;;;;;;1.02;0.70;;;9.50;84.90;;;;;;5036794;28;20369;-69
2023/12/22 08:42:22;;;;;;;5.60;1.67;;;9.50;85.10;;;;;;5054340;28;20408;-69
2023/12/22 08:44:47;;;;;;;9.73;1.55;;;9.50;85.20;;;;;;5057924;28;20024;-69
2023/12/22 08:47:13;;;;;;;5.40;1.98;;;9.50;85.50;;;;;;5037929;28;20395;-69
2023/12/22 08:49:39;;;;;;;2.15;1.05;;;9.40;85.80;;;;;;5060527;28;20036;-64
2023/12/22 08:52:05;;;;;;;3.30;1.90;;;9.40;86.00;;;;;;5058819;28;20036;-64
2023/12/22 08:54:30;;;;;;;8.25;2.15;;;9.50;86.00;;;;;;5056890;28;20032;-64
2023/12/22 08:56:56;;;;;;;5.78;2.08;;;9.40;86.10;;;;;;5051331;28;20033;-64
2023/12/22 08:59:22;;;;;;;3.42;1.35;;;9.50;86.60;;;;;;5043449;28;20037;-63
2023/12/22 09:01:48;;;;;;;3.10;1.42;;;9.50;86.60;;;;;;5033218;28;20025;-69
2023/12/22 09:04:14;;;;;;;4.18;1.90;;;9.50;86.60;;;;;;5050524;28;20480;-69
2023/12/22 09:06:40;;;;;;;3.60;1.00;;;9.60;86.80;;;;;;5044572;28;20041;-69
2023/12/22 09:09:07;;;;;;;10.05;1.90;;;9.60;86.80;;;;;;5056794;28;20041;-69
2023/12/22 09:11:33;;;;;;;11.18;2.35;;;9.60;87.10;;;;;;5054330;28;20036;-69
2023/12/22 09:13:58;;;;;;;13.65;2.85;;;9.60;87.20;;;;;;5037637;28;20552;-69
2023/12/22 09:16:27;;;;;;;10.75;2.15;;;9.70;87.50;;;;;;5039578;28;20118;-69
2023/12/22 09:18:53;;;;;;;10.57;3.20;;;9.70;87.60;;;;;;5033879;28;20053;-69
2023/12/22 09:21:19;;;;;;;3.83;1.33;;;9.70;87.70;;;;;;5037081;28;20025;-69
2023/12/22 09:23:48;;;;;;;4.25;1.13;;;9.70;87.60;;;;;;5034902;28;20063;-69
2023/12/22 09:26:14;;;;;;;8.52;2.25;;;9.80;87.60;;;;;;5052460;28;20043;-69
2023/12/22 09:28:40;;;;;;;4.65;1.65;;;9.80;87.90;;;;;;5027675;28;20432;-68
2023/12/22 09:31:09;;;;;;;5.05;1.77;;;9.80;88.00;;;;;;5042620;28;20024;-69
2023/12/22 09:33:35;;;;;;;4.25;1.75;;;9.90;88.00;;;;;;5038350;28;20101;-69
2023/12/22 09:36:01;;;;;;;1.50;0.90;;;9.90;88.00;;;;;;5038761;28;20032;-69
2023/12/22 09:38:27;;;;;;;6.70;2.65;;;9.90;88.20;;;;;;5044196;28;20022;-69
2023/12/22 09:40:53;;;;;;;3.08;1.15;;;9.90;88.20;;;;;;5025697;28;20029;-69
2023/12/22 09:43:20;;;;;;;4.25;1.85;;;10.00;88.20;;;;;;5031355;28;20040;-69
2023/12/22 09:45:50;;;;;;;1.90;1.10;;;10.00;88.30;;;;;;5043874;28;20074;-69
2023/12/22 09:48:17;;;;;;;3.38;1.88;;;10.00;88.40;;;;;;5047508;28;20030;-69
2023/12/22 09:50:44;;;;;;;3.45;0.93;;;10.00;88.40;;;;;;5032129;28;20472;-69
2023/12/22 09:53:13;;;;;;;3.03;1.35;;;10.10;88.50;;;;;;5040110;28;20045;-69
2023/12/22 09:55:42;;;;;;;4.47;1.23;;;10.20;88.50;;;;;;5035845;28;20033;-69
2023/12/22 09:58:09;;;;;;;6.03;1.35;;;10.20;88.60;;;;;;5047190;28;20507;-63
2023/12/22 10:00:37;;;;;;;7.40;1.73;;;10.20;88.60;;;;;;5041342;28;20032;-64
2023/12/22 10:03:07;;;;;;;3.42;0.60;;;10.20;88.40;;;;;;5039040;28;20029;-64
2023/12/22 10:05:33;;;;;;;0.63;0.63;;;10.20;88.30;;;;;;5035074;28;20040;-63
2023/12/22 10:08:01;;;;;;;0.50;0.50;;;10.20;88.10;;;;;;5038044;28;20393;-64
2023/12/22 10:10:30;;;;;;;0.63;0.60;;;10.20;87.90;;;;;;5046029;28;20058;-63
2023/12/22 10:12:58;;;;;;;1.08;0.68;;;10.10;87.60;;;;;;5039260;28;20041;-63
2023/12/22 10:15:24;;;;;;;0.38;0.35;;;10.20;87.50;;;;;;5048580;28;20012;-64
2023/12/22 10:17:53;;;;;;;3.83;0.68;;;10.10;87.30;;;;;;5038753;28;20515;-65
2023/12/22 10:20:19;;;;;;;0.82;0.40;;;10.10;87.30;;;;;;5050198;28;20075;-63
2023/12/22 10:22:46;;;;;;;6.97;0.98;;;10.10;87.30;;;;;;5032651;28;20436;-63
2023/12/22 10:25:16;;;;;;;0.80;0.43;;;10.10;87.30;;;;;;5040173;28;20757;-64
2023/12/22 10:27:43;;;;;;;0.80;0.45;;;10.10;87.30;;;;;;5047037;28;20484;-63
2023/12/22 10:30:10;;;;;;;0.75;0.30;;;10.10;87.40;;;;;;5038283;28;20483;-64
2023/12/22 10:32:41;;;;;;;0.38;0.38;;;10.10;87.40;;;;;;5033840;28;20040;-64
2023/12/22 10:35:08;;;;;;;2.20;0.57;;;10.10;87.40;;;;;;5040429;28;20029;-64
2023/12/22 10:37:33;;;;;;;2.65;0.60;;;10.10;87.60;;;;;;5036558;28;20392;-64
2023/12/22 10:39:59;;;;;;;1.27;0.60;;;10.10;87.90;;;;;;5028837;28;20025;-64
2023/12/22 10:42:25;;;;;;;4.70;0.70;;;10.10;88.00;;;;;;5041232;28;20472;-64
2023/12/22 10:44:53;;;;;;;0.25;0.22;;;10.20;87.90;;;;;;5038580;28;20036;-63
2023/12/22 10:47:21;;;;;;;2.08;0.82;;;10.30;88.30;;;;;;5034400;28;20043;-64
2023/12/22 10:49:47;;;;;;;0.80;0.65;;;10.30;88.30;;;;;;5047420;28;20485;-61
2023/12/22 10:52:17;;;;;;;0.40;0.40;;;10.40;88.40;;;;;;5031079;28;20072;-62
2023/12/22 10:54:43;;;;;;;0.98;0.63;;;10.40;88.30;;;;;;5053852;28;20124;-63
2023/12/22 10:57:11;;;;;;;1.65;1.17;;;10.50;88.40;;;;;;5043604;28;20028;-62
2023/12/22 10:59:45;;;;;;;2.05;0.93;;;10.60;88.70;;;;;;5039330;28;20028;-62
2023/12/22 11:02:32;;;;;;;5.03;1.25;;;10.60;88.60;;;;;;5029914;28;21093;-64
2023/12/22 11:05:02;;;;;;;1.67;0.75;;;10.60;88.90;;;;;;5030940;28;20099;-64
2023/12/22 11:07:30;;;;;;;3.97;0.88;;;10.70;88.80;;;;;;5024771;28;20044;-64
2023/12/22 11:10:06;;;;;;;3.95;0.65;;;10.70;88.80;;;;;;5039608;28;20395;-64
2023/12/22 11:12:36;;;;;;;2.13;0.65;;;10.70;88.80;;;;;;5040386;28;20117;-64
2023/12/22 11:15:08;;;;;;;1.98;0.70;;;10.80;88.90;;;;;;5036062;28;20124;-64
2023/12/22 11:17:36;;;;;;;1.33;1.00;;;10.80;89.00;;;;;;5030496;28;20227;-64
2023/12/22 11:20:04;;;;;;;1.85;0.75;;;10.70;89.00;;;;;;5046273;28;20499;-64
2023/12/22 11:22:32;;;;;;;2.72;1.05;;;10.80;88.90;;;;;;5040995;28;20025;-64
2023/12/22 11:25:00;;;;;;;3.25;0.50;;;10.80;88.90;;;;;;5030819;28;20104;-64
2023/12/22 11:27:26;;;;;;;5.47;1.02;;;10.80;88.80;;;;;;5042322;28;20032;-64
2023/12/22 11:29:52;;;;;;;1.17;0.75;;;10.80;88.70;;;;;;5046511;28;20103;-64
2023/12/22 11:32:19;;;;;;;1.60;0.85;;;10.80;89.30;;;;;;5043316;28;20029;-64
2023/12/22 11:34:47;;;;;;;2.40;0.80;;;10.80;88.60;;;;;;5044046;28;20128;-64
2023/12/22 11:37:15;;;;;;;0.82;0.43;;;10.80;88.70;;;;;;5037207;28;20090;-64
2023/12/22 11:39:41;;;;;;;3.30;0.60;;;10.80;88.70;;;;;;5047460;28;20025;-64
2023/12/22 11:42:21;;;;;;;2.50;0.90;;;10.90;88.80;;;;;;5048518;28;20029;-64
2023/12/22 11:44:47;;;;;;;2.88;1.27;;;10.90;88.80;;;;;;5039279;28;20373;-64
2023/12/22 11:47:14;;;;;;;2.45;0.95;;;11.00;88.80;;;;;;5040870;28;21788;-64
2023/12/22 11:49:40;;;;;;;4.32;1.00;;;11.00;88.90;;;;;;5041984;28;20067;-64
2023/12/22 11:52:29;;;;;;;1.75;0.73;;;11.10;88.70;;;;;;5048116;28;20033;-64
2023/12/22 11:54:56;;;;;;;2.65;0.73;;;11.20;89.00;;;;;;5053415;28;20049;-64
2023/12/22 11:57:31;;;;;;;5.40;1.08;;;11.20;88.30;;;;;;5049802;28;20567;-65
2023/12/22 11:59:58;;;;;;;1.88;0.60;;;11.20;88.10;;;;;;5059470;28;20025;-64
2023/12/22 12:02:23;;;;;;;2.63;1.30;;;11.20;87.90;;;;;;5039762;28;20021;-64
2023/12/22 12:04:50;;;;;;;6.70;0.65;;;11.20;87.90;;;;;;5057030;28;20390;-64
2023/12/22 12:07:39;;;;;;;4.00;1.10;;;11.20;87.80;;;;;;5032690;28;20886;-64
2023/12/22 12:10:09;;;;;;;4.10;0.90;;;11.10;87.80;;;;;;5039451;28;20034;-65
2023/12/22 12:12:36;;;;;;;0.63;0.50;;;11.00;88.00;;;;;;5039776;28;20040;-67
2023/12/22 12:15:20;;;;;;;6.75;1.00;;;11.00;88.10;;;;;;5053324;28;20032;-66
2023/12/22 12:17:48;;;;;;;1.23;0.80;;;11.00;88.20;;;;;;5042168;28;20112;-66
2023/12/22 12:20:14;;;;;;;2.60;0.63;;;11.00;88.30;;;;;;5042904;28;20514;-64
2023/12/22 12:22:43;;;;;;;1.63;0.80;;;11.00;88.00;;;;;;5041202;28;20040;-64
2023/12/22 12:25:10;;;;;;;1.35;0.63;;;10.90;87.90;;;;;;5049072;28;20029;-63
2023/12/22 12:27:38;;;;;;;2.75;1.10;;;10.90;88.10;;;;;;5031251;28;20395;-66
2023/12/22 12:30:14;;;;;;;3.90;1.02;;;10.90;88.20;;;;;;5044282;28;20149;-66
2023/12/22 12:32:46;;;;;;;0.52;0.52;;;10.90;88.30;;;;;;5040082;28;20036;-65
2023/12/22 12:35:12;;;;;;;1.27;0.68;;;11.00;88.30;;;;;;5032154;28;20036;-65
2023/12/22 12:37:38;;;;;;;5.50;0.55;;;11.00;88.20;;;;;;5033676;28;20226;-65
2023/12/22 12:40:10;;;;;;;3.05;0.65;;;11.00;88.30;;;;;;5039622;28;20470;-65
2023/12/22 12:42:37;;;;;;;1.70;0.60;;;11.00;88.20;;;;;;5049924;28;20017;-64
2023/12/22 12:45:07;;;;;;;1.27;0.70;;;11.00;88.40;;;;;;5049521;28;20383;-65
2023/12/22 12:47:33;;;;;;;2.92;0.93;;;11.00;88.40;;;;;;5043887;28;20029;-64
2023/12/22 12:50:02;;;;;;;0.50;0.47;;;11.00;88.50;;;;;;5046090;28;20048;-65
2023/12/22 12:52:28;;;;;;;0.73;0.70;;;11.10;88.50;;;;;;5054009;28;20458;-71